Time;durP1;ratioP1;P1;durP2;ratioP2;P2;SDS_P1;SDS_P2;PMS_P1;PMS_P2;Temp;Humidity;BMP_temperature;BMP_pressure;BME280_temperature;BME280_humidity;BME280_pressure;Samples;Min_cycle;Max_cycle;Signal;HPM_P1;HPM_P2
2022/09/02 00:00:45;;;;;;;6.93;1.60;;;;;;;14.54;60.74;101547.25;4973570;28;20056;-84
2022/09/02 00:03:11;;;;;;;4.43;1.52;;;;;;;14.47;60.88;101542.13;4972903;28;20036;-84
2022/09/02 00:05:37;;;;;;;3.38;1.50;;;;;;;14.45;60.95;101549.66;4973503;28;20057;-84
2022/09/02 00:08:03;;;;;;;4.33;1.50;;;;;;;14.42;61.19;101549.38;4973629;28;20479;-84
2022/09/02 00:10:29;;;;;;;3.42;1.40;;;;;;;14.37;61.93;101551.00;4973040;28;20050;-84
2022/09/02 00:12:54;;;;;;;3.25;1.55;;;;;;;14.37;61.56;101548.28;4972395;28;20073;-84
2022/09/02 00:15:20;;;;;;;8.30;1.57;;;;;;;14.29;62.46;101545.31;4973311;28;20069;-84
2022/09/02 00:17:45;;;;;;;3.30;1.43;;;;;;;14.28;62.57;101543.69;4973570;28;20038;-84
2022/09/02 00:20:10;;;;;;;3.17;1.60;;;;;;;14.25;62.62;101539.63;4972642;28;20041;-84
2022/09/02 00:22:35;;;;;;;3.50;1.60;;;;;;;14.20;62.74;101536.91;4973533;28;20030;-83
2022/09/02 00:25:01;;;;;;;5.18;1.48;;;;;;;14.15;62.81;101544.97;4972911;28;20035;-83
2022/09/02 00:27:26;;;;;;;6.13;1.47;;;;;;;14.12;63.11;101532.84;4972974;28;20035;-83
2022/09/02 00:29:52;;;;;;;6.30;1.60;;;;;;;14.12;62.90;101532.03;4971677;28;20051;-83
2022/09/02 00:32:17;;;;;;;4.43;1.50;;;;;;;14.11;63.24;101528.53;4972585;28;20023;-83
2022/09/02 00:34:43;;;;;;;6.72;1.60;;;;;;;14.08;63.54;101523.69;4972845;28;20529;-83
2022/09/02 00:37:08;;;;;;;4.60;1.60;;;;;;;14.07;63.13;101527.44;4972668;28;20018;-85
2022/09/02 00:39:33;;;;;;;3.03;1.60;;;;;;;14.02;63.52;101525.53;4972792;28;20059;-83
2022/09/02 00:42:00;;;;;;;4.00;1.50;;;;;;;14.04;63.27;101528.78;4972531;28;20067;-83
2022/09/02 00:44:26;;;;;;;2.00;1.60;;;;;;;13.97;63.75;101530.09;4955398;28;20642;-83
2022/09/02 00:46:51;;;;;;;4.05;1.63;;;;;;;13.96;63.32;101523.09;4966112;28;20030;-83
2022/09/02 00:49:17;;;;;;;3.70;1.73;;;;;;;13.92;63.68;101523.63;4953093;29;20039;-83
2022/09/02 00:51:47;;;;;;;4.70;1.90;;;;;;;13.90;64.33;101533.03;4952999;29;20412;-83
2022/09/02 00:54:14;;;;;;;2.72;1.40;;;;;;;13.88;64.05;101524.38;4945785;29;20525;-83
2022/09/02 00:56:43;;;;;;;3.70;1.90;;;;;;;13.83;64.15;101522.50;4936129;29;20094;-83
2022/09/02 00:59:14;;;;;;;5.43;2.03;;;;;;;13.77;64.26;101516.28;4952992;29;20267;-83
2022/09/02 01:01:39;;;;;;;5.90;1.73;;;;;;;13.73;64.75;101512.47;4952834;29;20034;-83
2022/09/02 01:04:05;;;;;;;3.77;1.70;;;;;;;13.77;64.85;101510.09;4961069;28;20415;-83
2022/09/02 01:06:31;;;;;;;3.70;1.60;;;;;;;13.77;64.36;101510.09;4972346;28;20320;-83
2022/09/02 01:09:07;;;;;;;6.90;1.73;;;;;;;13.74;64.79;101513.31;4972424;28;20074;-83
2022/09/02 01:11:43;;;;;;;1.67;1.42;;;;;;;13.74;64.30;101508.72;4971841;28;20038;-83
2022/09/02 01:14:12;;;;;;;6.35;1.83;;;;;;;13.72;65.26;101521.63;4954496;28;20109;-83
2022/09/02 01:16:44;;;;;;;3.00;1.40;;;;;;;13.73;64.87;101507.09;4971604;28;20026;-83
2022/09/02 01:19:16;;;;;;;2.92;1.52;;;;;;;13.60;64.52;101500.28;4971245;28;20050;-83
2022/09/02 01:22:04;;;;;;;2.53;1.60;;;;;;;13.63;64.29;101512.44;4971191;28;20380;-83
2022/09/02 01:24:31;;;;;;;3.47;1.47;;;;;;;13.56;65.63;101504.59;4954645;28;20732;-83
2022/09/02 01:26:58;;;;;;;3.92;1.90;;;;;;;13.55;65.54;101508.38;4971814;28;20631;-83
2022/09/02 01:29:27;;;;;;;5.13;1.80;;;;;;;13.55;65.88;101508.38;4972099;28;20022;-83
2022/09/02 01:31:52;;;;;;;2.10;1.70;;;;;;;13.47;66.15;101506.16;4971348;28;20034;-83
2022/09/02 01:36:45;;;;;;;2.30;1.77;;;;;;;13.45;66.32;101505.59;4989840;28;20062;-83
2022/09/02 01:39:12;;;;;;;4.30;2.10;;;;;;;13.42;66.60;101511.53;4990997;28;20026;-83
2022/09/02 01:41:37;;;;;;;3.53;2.00;;;;;;;13.35;66.95;101500.13;4990818;28;20393;-83
2022/09/02 01:44:04;;;;;;;2.00;1.70;;;;;;;13.33;67.40;101503.06;4976315;28;20038;-83
2022/09/02 01:46:32;;;;;;;2.95;2.00;;;;;;;13.28;67.34;101498.47;4971914;28;20090;-83
2022/09/02 01:48:57;;;;;;;3.97;1.80;;;;;;;13.25;67.24;101496.28;4971548;28;20051;-83
2022/09/02 01:51:22;;;;;;;5.80;2.07;;;;;;;13.16;67.64;101487.91;4970182;28;20445;-83
2022/09/02 01:53:48;;;;;;;4.00;1.70;;;;;;;13.23;67.82;101492.25;4971302;28;20031;-83
2022/09/02 01:56:15;;;;;;;2.10;1.90;;;;;;;13.16;67.84;101495.16;4971186;28;20085;-83
2022/09/02 01:58:40;;;;;;;5.47;1.90;;;;;;;13.10;67.79;101494.34;4971783;28;20066;-82
2022/09/02 02:01:06;;;;;;;3.03;1.80;;;;;;;13.08;68.59;101493.78;4970618;28;20062;-83
2022/09/02 02:03:32;;;;;;;9.35;2.00;;;;;;;13.07;68.00;101492.16;4971451;28;20023;-83
2022/09/02 02:05:58;;;;;;;4.75;2.38;;;;;;;13.00;68.12;101480.78;4971239;28;20034;-83
2022/09/02 02:08:24;;;;;;;6.28;2.28;;;;;;;13.02;68.26;101492.09;4970065;28;20030;-83
2022/09/02 02:10:50;;;;;;;4.00;2.20;;;;;;;12.99;68.49;101482.69;4970611;28;20034;-83
2022/09/02 02:13:15;;;;;;;6.70;1.95;;;;;;;13.02;68.51;101481.34;4971151;28;20113;-83
2022/09/02 02:15:42;;;;;;;2.53;1.87;;;;;;;13.01;68.36;101488.63;4971492;28;20031;-83
2022/09/02 02:18:08;;;;;;;4.97;2.30;;;;;;;12.94;68.70;101484.53;4970965;28;20038;-83
2022/09/02 02:20:34;;;;;;;3.90;1.85;;;;;;;12.93;68.78;101490.97;4971017;28;20093;-83
2022/09/02 02:23:00;;;;;;;3.47;1.90;;;;;;;12.93;69.22;101482.91;4971095;28;20039;-83
2022/09/02 02:25:26;;;;;;;6.10;2.37;;;;;;;12.95;68.95;101483.47;4969275;28;20294;-83
2022/09/02 02:27:52;;;;;;;4.85;2.10;;;;;;;12.96;68.72;101487.78;4953551;28;20037;-83
2022/09/02 02:30:18;;;;;;;4.90;2.17;;;;;;;12.97;68.86;101475.91;4970759;28;20035;-83
2022/09/02 02:32:46;;;;;;;3.35;2.03;;;;;;;12.94;68.69;101476.47;4971239;28;20039;-83
2022/09/02 02:35:13;;;;;;;2.58;1.83;;;;;;;12.99;68.74;101473.78;4970672;28;20097;-83
2022/09/02 02:37:38;;;;;;;2.67;1.80;;;;;;;13.05;68.57;101475.44;4970248;28;20027;-83
2022/09/02 02:40:05;;;;;;;7.70;2.00;;;;;;;13.07;68.26;101473.31;4968570;28;20094;-83
2022/09/02 02:42:32;;;;;;;5.43;2.10;;;;;;;13.05;68.50;101478.16;4971228;28;20069;-83
2022/09/02 02:44:57;;;;;;;4.30;1.80;;;;;;;12.87;68.75;101457.84;4970928;28;20026;-83
2022/09/02 02:47:23;;;;;;;3.95;1.95;;;;;;;13.00;68.08;101478.09;4970810;28;20139;-83
2022/09/02 02:49:49;;;;;;;3.97;1.80;;;;;;;13.03;68.55;101472.22;4970417;28;20639;-83
2022/09/02 02:52:14;;;;;;;5.53;2.05;;;;;;;13.01;68.52;101471.66;4970639;28;20050;-83
2022/09/02 02:54:40;;;;;;;5.77;1.90;;;;;;;12.98;68.29;101466.78;4971340;28;20063;-83
2022/09/02 02:57:06;;;;;;;4.63;2.33;;;;;;;12.97;68.51;101473.22;4969505;28;20034;-83
2022/09/02 02:59:32;;;;;;;2.75;2.00;;;;;;;12.92;68.66;101465.16;4971089;28;20062;-83
2022/09/02 03:01:57;;;;;;;4.23;2.30;;;;;;;12.94;68.80;101471.09;4937145;28;20035;-83
2022/09/02 03:04:23;;;;;;;5.90;2.20;;;;;;;12.92;68.69;101465.16;4970613;28;20027;-83
2022/09/02 03:06:50;;;;;;;3.50;2.20;;;;;;;12.95;68.59;101461.94;4970441;28;20035;-83
2022/09/02 03:09:19;;;;;;;5.60;2.17;;;;;;;12.96;68.75;101461.69;4968835;28;20034;-83
2022/09/02 03:11:45;;;;;;;8.40;2.20;;;;;;;12.99;68.75;101465.72;4953716;28;20035;-83
2022/09/02 03:14:10;;;;;;;6.82;2.08;;;;;;;12.98;68.54;101461.41;4970310;28;20030;-83
2022/09/02 03:16:36;;;;;;;3.17;2.20;;;;;;;13.00;68.54;101467.34;4970905;28;20098;-83
2022/09/02 03:19:02;;;;;;;4.13;2.38;;;;;;;13.03;68.46;101466.81;4953224;28;20032;-83
2022/09/02 03:21:28;;;;;;;2.90;1.90;;;;;;;13.01;68.32;101466.28;4970522;28;20034;-83
2022/09/02 03:23:54;;;;;;;5.40;2.00;;;;;;;13.01;68.23;101466.28;4970033;28;20031;-83
2022/09/02 03:26:23;;;;;;;4.37;2.60;;;;;;;12.99;68.71;101463.03;4970767;28;20320;-83
2022/09/02 03:28:50;;;;;;;2.92;2.17;;;;;;;12.93;68.51;101453.31;4970563;28;20639;-83
2022/09/02 03:31:19;;;;;;;4.25;2.28;;;;;;;12.98;68.31;101458.72;4970055;28;20030;-83
2022/09/02 03:33:45;;;;;;;6.03;2.28;;;;;;;12.93;69.30;101464.09;4970424;28;20031;-83
2022/09/02 03:36:26;;;;;;;5.28;2.17;;;;;;;12.87;68.25;101455.97;4970123;28;20035;-84
2022/09/02 03:38:51;;;;;;;7.10;2.30;;;;;;;12.92;68.98;101457.06;4972013;28;20117;-84
2022/09/02 03:41:17;;;;;;;6.57;2.40;;;;;;;12.92;68.63;101454.38;4972068;28;20317;-83
2022/09/02 03:43:42;;;;;;;3.22;2.00;;;;;;;12.86;68.44;101445.47;4974071;28;20026;-83
2022/09/02 03:46:08;;;;;;;4.33;2.20;;;;;;;12.91;68.38;101444.69;4973741;28;20027;-83
2022/09/02 03:48:35;;;;;;;4.65;2.45;;;;;;;12.83;69.01;101444.09;4973592;28;20168;-83
2022/09/02 03:51:00;;;;;;;7.22;2.10;;;;;;;12.90;68.99;101445.75;4973047;28;20026;-84
2022/09/02 03:53:25;;;;;;;5.47;2.20;;;;;;;12.92;69.14;101446.31;4973747;28;20077;-83
2022/09/02 03:55:51;;;;;;;4.03;2.30;;;;;;;12.98;68.53;101445.25;4973712;28;20403;-84
2022/09/02 03:58:17;;;;;;;2.30;2.00;;;;;;;12.94;68.79;101434.22;4973011;28;20034;-83
2022/09/02 04:00:43;;;;;;;4.43;2.33;;;;;;;12.95;69.03;101438.53;4955722;28;20173;-83
2022/09/02 04:03:08;;;;;;;3.70;2.35;;;;;;;13.03;68.36;101435.38;4973347;28;20019;-84
2022/09/02 04:05:34;;;;;;;6.57;2.40;;;;;;;12.97;68.86;101444.47;4973577;28;20034;-84
2022/09/02 04:07:59;;;;;;;5.80;2.47;;;;;;;12.93;68.99;101443.34;4973278;28;20031;-83
2022/09/02 04:10:25;;;;;;;5.80;1.97;;;;;;;12.91;68.88;101433.94;4973156;28;20296;-83
2022/09/02 04:12:51;;;;;;;4.43;2.17;;;;;;;12.87;69.23;101441.72;4973292;28;20035;-83
2022/09/02 04:15:18;;;;;;;7.35;2.58;;;;;;;12.78;69.59;101433.28;4972476;28;20133;-83
2022/09/02 04:17:43;;;;;;;3.88;2.33;;;;;;;12.82;69.40;101430.91;4973331;28;20015;-84
2022/09/02 04:20:11;;;;;;;6.77;2.20;;;;;;;12.79;69.31;101432.22;4972713;28;20057;-83
2022/09/02 04:22:37;;;;;;;5.10;2.40;;;;;;;12.82;69.45;101428.22;4973417;28;20081;-83
2022/09/02 04:25:04;;;;;;;2.70;2.10;;;;;;;12.82;69.38;101436.28;4973055;28;20553;-83
2022/09/02 04:27:29;;;;;;;3.22;2.33;;;;;;;12.81;69.69;101418.53;4972866;28;20170;-83
2022/09/02 04:29:55;;;;;;;4.23;2.23;;;;;;;12.83;69.51;101424.47;4972717;28;20110;-83
2022/09/02 04:32:20;;;;;;;3.95;2.40;;;;;;;12.85;69.00;101427.72;4953834;28;20031;-83
2022/09/02 04:34:49;;;;;;;7.03;2.50;;;;;;;12.85;69.60;101433.09;4971892;28;20031;-83
2022/09/02 04:37:14;;;;;;;6.22;2.50;;;;;;;12.86;69.61;101416.69;4973065;28;20102;-83
2022/09/02 04:39:41;;;;;;;5.07;2.50;;;;;;;12.93;69.64;101423.72;4972789;28;20102;-83
2022/09/02 04:42:06;;;;;;;7.93;2.20;;;;;;;12.95;69.64;101422.41;4972493;28;20034;-84
2022/09/02 04:44:32;;;;;;;7.83;2.70;;;;;;;12.96;69.53;101423.22;4972742;28;20273;-84
2022/09/02 04:46:59;;;;;;;6.38;2.60;;;;;;;13.00;69.14;101418.91;4972424;28;20121;-83
2022/09/02 04:49:24;;;;;;;4.80;2.33;;;;;;;13.09;68.85;101416.56;4967185;28;20030;-82
2022/09/02 04:51:49;;;;;;;9.77;2.80;;;;;;;13.10;69.34;101419.00;4970823;28;20313;-84
2022/09/02 04:54:15;;;;;;;9.10;2.63;;;;;;;13.18;68.78;101420.38;4971827;28;20092;-84
2022/09/02 04:56:41;;;;;;;9.80;2.50;;;;;;;13.23;68.63;101428.50;4971869;28;20042;-83
2022/09/02 04:59:06;;;;;;;7.30;2.73;;;;;;;13.32;68.78;101426.13;4971459;28;20042;-83
2022/09/02 05:01:35;;;;;;;3.72;2.45;;;;;;;13.36;68.58;101431.78;4970923;28;20110;-83
2022/09/02 05:04:03;;;;;;;10.60;3.10;;;;;;;13.37;68.61;101423.44;4969040;28;20046;-83
2022/09/02 05:06:29;;;;;;;4.13;2.30;;;;;;;13.44;68.04;101424.03;4972150;28;20690;-83
2022/09/02 05:08:55;;;;;;;7.55;2.60;;;;;;;13.52;67.78;101433.50;4972088;28;20176;-83
2022/09/02 05:11:27;;;;;;;7.57;2.60;;;;;;;13.51;68.35;101428.38;4960253;28;20035;-83
2022/09/02 05:13:55;;;;;;;9.43;2.58;;;;;;;13.58;68.31;101437.84;4935149;29;20038;-83
2022/09/02 05:16:25;;;;;;;6.30;2.38;;;;;;;13.63;67.76;101428.97;4952819;29;20179;-84
2022/09/02 05:18:51;;;;;;;6.28;2.78;;;;;;;13.69;67.78;101433.31;4965307;28;20047;-84
2022/09/02 05:21:17;;;;;;;7.82;2.38;;;;;;;13.75;67.55;101428.75;4970387;28;20027;-85
2022/09/02 05:23:43;;;;;;;8.17;2.70;;;;;;;13.77;67.59;101430.09;4971858;28;20501;-85
2022/09/02 05:26:11;;;;;;;7.57;2.47;;;;;;;13.79;67.26;101427.13;4971222;28;20039;-84
2022/09/02 05:28:37;;;;;;;8.10;2.65;;;;;;;13.91;66.88;101437.66;4971778;28;20165;-83
2022/09/02 05:31:16;;;;;;;8.80;2.50;;;;;;;13.91;66.81;101430.41;4953596;28;20117;-83
2022/09/02 05:33:43;;;;;;;8.43;2.72;;;;;;;13.95;67.25;101433.38;4971570;28;20034;-83
2022/09/02 05:38:44;;;;;;;9.95;2.88;;;;;;;14.01;67.25;101437.69;5083425;23;20054;-89
2022/09/02 05:41:22;;;;;;;6.68;2.50;;;;;;;14.08;67.00;101424.75;4977332;28;20037;-88
2022/09/02 05:43:48;;;;;;;8.98;3.20;;;;;;;14.10;66.92;101424.50;4992207;28;20694;-90
2022/09/02 05:46:19;;;;;;;4.37;2.80;;;;;;;14.19;67.01;101422.09;4991380;28;20121;-89
2022/09/02 05:49:05;;;;;;;11.00;3.08;;;;;;;14.24;66.88;101424.81;4989604;28;20077;-89
2022/09/02 05:51:32;;;;;;;8.38;3.33;;;;;;;14.34;66.58;101430.19;4977007;28;20025;-91
2022/09/02 05:54:00;;;;;;;8.98;3.50;;;;;;;14.38;66.11;101425.06;4984938;28;20028;-88
2022/09/02 05:56:26;;;;;;;10.77;3.22;;;;;;;14.48;65.93;101426.97;4982503;28;20058;-88
2022/09/02 05:58:53;;;;;;;9.88;3.60;;;;;;;14.50;65.91;101427.50;4987655;28;20450;-89
2022/09/02 06:01:19;;;;;;;13.52;3.80;;;;;;;14.57;65.72;101424.53;4965455;28;20160;-88
2022/09/02 06:03:44;;;;;;;18.53;4.20;;;;;;;14.63;65.52;101418.88;4972542;28;20042;-88
2022/09/02 06:06:10;;;;;;;10.18;4.70;;;;;;;14.62;65.69;101409.16;4977108;28;20034;-91
2022/09/02 06:08:35;;;;;;;12.03;4.53;;;;;;;14.74;65.95;101427.78;4992457;28;20037;-96
2022/09/02 06:11:02;;;;;;;10.30;4.60;;;;;;;14.80;65.47;101420.50;4991801;28;20438;-94
2022/09/02 06:13:30;;;;;;;12.88;4.97;;;;;;;14.90;65.05;101425.91;4991159;28;20475;-91
2022/09/02 06:15:56;;;;;;;15.13;5.32;;;;;;;14.91;65.03;101416.72;4973505;28;20018;-95
2022/09/02 06:18:22;;;;;;;14.07;6.10;;;;;;;15.01;64.51;101425.88;4999656;28;20022;-95
2022/09/02 06:20:48;;;;;;;17.52;5.90;;;;;;;15.10;64.56;101435.03;5002083;28;20026;-94
2022/09/02 06:23:15;;;;;;;12.07;5.73;;;;;;;15.12;64.24;101424.78;4993374;28;20037;-92
2022/09/02 06:25:43;;;;;;;14.27;5.70;;;;;;;15.21;64.23;101425.03;4979187;28;20560;-94
2022/09/02 06:28:09;;;;;;;24.45;5.38;;;;;;;15.24;63.54;101419.09;4999913;28;20026;-92
2022/09/02 06:30:43;;;;;;;14.65;5.70;;;;;;;15.33;63.72;101422.03;4984994;28;20038;-94
2022/09/02 06:33:09;;;;;;;16.65;6.07;;;;;;;15.40;63.83;101422.53;4989001;28;20053;-94
2022/09/02 06:35:44;;;;;;;16.95;6.53;;;;;;;15.46;62.72;101424.13;4991258;28;20222;-93
2022/09/02 06:38:10;;;;;;;18.98;6.40;;;;;;;15.51;62.63;101417.91;4990823;28;20071;-93
2022/09/02 06:40:44;;;;;;;18.10;6.37;;;;;;;15.62;62.42;101421.34;4984097;28;20023;-95
2022/09/02 06:43:09;;;;;;;20.77;7.30;;;;;;;15.68;62.52;101423.75;4980410;28;20297;-94
2022/09/02 06:45:39;;;;;;;15.85;6.50;;;;;;;15.77;61.89;101421.28;4971094;28;20027;-95
2022/09/02 06:48:04;;;;;;;19.27;6.70;;;;;;;15.84;61.57;101420.97;4982584;28;20027;-94
2022/09/02 06:50:30;;;;;;;20.33;6.32;;;;;;;15.90;61.64;101411.78;4985670;28;20378;-95
2022/09/02 06:52:55;;;;;;;17.40;7.53;;;;;;;16.03;61.45;101418.47;4981077;28;20021;-94
2022/09/02 06:55:20;;;;;;;16.60;5.97;;;;;;;16.02;61.61;101400.63;4972240;28;20057;-94
2022/09/02 06:57:46;;;;;;;17.00;6.70;;;;;;;16.20;60.93;101416.19;4978251;28;20038;-93
2022/09/02 07:00:12;;;;;;;17.93;6.20;;;;;;;16.26;60.55;101410.72;4971141;28;20042;-93
2022/09/02 07:02:37;;;;;;;17.40;6.95;;;;;;;16.38;60.14;101408.47;4957994;28;20116;-93
2022/09/02 07:05:09;;;;;;;19.08;7.63;;;;;;;16.50;59.94;101411.63;5015609;28;20079;-94
2022/09/02 07:07:39;;;;;;;17.03;7.90;;;;;;;16.58;60.06;101406.69;4991266;28;20034;-94
2022/09/02 07:10:07;;;;;;;23.00;7.80;;;;;;;16.69;58.78;101397.38;4990080;28;20070;-93
2022/09/02 07:12:34;;;;;;;20.58;8.82;;;;;;;16.85;58.98;101402.63;4990594;28;20433;-95
2022/09/02 07:14:59;;;;;;;24.70;8.43;;;;;;;16.98;58.68;101406.59;4992184;28;20114;-90
2022/09/02 07:17:25;;;;;;;21.07;8.87;;;;;;;17.14;57.95;101413.47;4985604;28;20114;-89
2022/09/02 07:19:50;;;;;;;24.55;9.00;;;;;;;17.22;58.02;101402.00;4989324;28;20065;-90
2022/09/02 07:22:16;;;;;;;20.53;8.83;;;;;;;17.37;56.93;101411.03;4984583;28;20034;-90
2022/09/02 07:24:41;;;;;;;25.83;9.30;;;;;;;17.40;57.29;101400.44;4984600;28;20523;-91
2022/09/02 07:27:06;;;;;;;21.50;9.07;;;;;;;17.51;57.19;101413.84;4981053;28;20042;-91
2022/09/02 07:29:33;;;;;;;26.87;8.83;;;;;;;17.63;56.48;101408.00;4976022;28;20102;-91
2022/09/02 07:31:58;;;;;;;17.27;8.65;;;;;;;17.69;56.35;101407.66;4956005;28;20414;-90
2022/09/02 07:34:23;;;;;;;21.20;9.33;;;;;;;17.80;55.89;101410.22;4984991;28;20041;-90
2022/09/02 07:36:49;;;;;;;23.10;9.47;;;;;;;17.95;56.05;101410.00;4982973;28;20023;-90
2022/09/02 07:39:16;;;;;;;29.50;10.27;;;;;;;18.03;55.76;101400.41;4977276;28;20027;-91
2022/09/02 07:41:43;;;;;;;24.05;9.73;;;;;;;18.12;55.57;101408.69;4975797;28;20387;-91
2022/09/02 07:44:09;;;;;;;29.38;10.15;;;;;;;18.22;54.99;101402.28;4956324;28;20036;-91
2022/09/02 07:46:37;;;;;;;29.27;10.40;;;;;;;18.37;55.21;101401.25;4974079;28;20026;-91
2022/09/02 07:49:07;;;;;;;24.02;10.02;;;;;;;18.37;54.95;101399.31;4974024;28;20023;-91
2022/09/02 07:51:33;;;;;;;36.17;10.48;;;;;;;18.48;54.85;101401.88;4976374;28;20026;-91
2022/09/02 07:54:00;;;;;;;23.83;9.95;;;;;;;18.37;54.45;101376.84;5060880;23;20101;-91
2022/09/02 07:56:35;;;;;;;30.58;10.20;;;;;;;18.56;54.70;101385.72;4973691;28;20031;-92
2022/09/02 07:59:01;;;;;;;23.55;10.45;;;;;;;18.58;54.23;101383.53;4973167;28;20030;-91
2022/09/02 08:05:01;;;;;;;31.47;11.43;;;;;;;18.72;53.99;101380.00;4992704;28;20272;-91
2022/09/02 08:07:26;;;;;;;33.53;11.68;;;;;;;18.83;53.65;101381.44;4992527;28;20374;-91
2022/09/02 08:09:52;;;;;;;27.15;11.95;;;;;;;18.83;53.59;101378.72;4972789;28;20119;-90
2022/09/02 08:12:17;;;;;;;34.80;11.60;;;;;;;19.12;53.66;101410.25;4972581;28;20027;-91
2022/09/02 08:14:43;;;;;;;38.50;12.00;;;;;;;19.21;53.06;101394.06;4973962;28;20026;-90
2022/09/02 08:17:08;;;;;;;35.13;12.13;;;;;;;19.42;53.41;101405.28;4972572;28;20475;-91
2022/09/02 08:19:33;;;;;;;27.17;12.30;;;;;;;19.67;52.29;101393.06;4973207;28;20121;-91
2022/09/02 08:22:05;;;;;;;31.13;13.70;;;;;;;19.87;51.47;101393.75;4985090;28;20031;-91
2022/09/02 08:24:31;;;;;;;35.97;14.23;;;;;;;19.97;51.04;101385.38;4955287;28;20078;-90
2022/09/02 08:26:56;;;;;;;30.43;13.83;;;;;;;20.19;51.06;101393.81;4972990;28;20294;-91
2022/09/02 08:29:22;;;;;;;39.05;14.30;;;;;;;20.41;51.45;101385.66;4972833;28;20033;-92
2022/09/02 08:31:47;;;;;;;39.07;14.37;;;;;;;20.50;50.18;101382.97;4972063;28;20607;-92
2022/09/02 08:34:13;;;;;;;36.73;14.70;;;;;;;20.71;49.78;101383.22;4976316;28;20114;-90
2022/09/02 08:36:42;;;;;;;43.03;14.57;;;;;;;20.95;49.06;101386.72;4977977;28;20386;-91
2022/09/02 08:39:08;;;;;;;38.13;14.83;;;;;;;21.02;49.26;101379.69;4971327;28;20290;-91
2022/09/02 08:41:45;;;;;;;42.72;15.00;;;;;;;21.15;49.69;101379.91;4973384;28;20104;-91
2022/09/02 08:44:19;;;;;;;37.85;14.75;;;;;;;21.20;48.91;101382.47;4972212;28;20034;-90
2022/09/02 08:46:45;;;;;;;29.77;12.80;;;;;;;21.35;48.41;101377.72;4973624;28;20058;-91
2022/09/02 08:49:21;;;;;;;36.17;14.23;;;;;;;21.46;47.76;101381.72;4972631;28;20031;-91
2022/09/02 08:51:50;;;;;;;37.67;14.02;;;;;;;21.42;48.06;101388.94;4978951;28;20554;-91
2022/09/02 08:54:43;;;;;;;33.38;13.93;;;;;;;21.56;48.69;101389.56;5138506;23;20099;-91
2022/09/02 08:57:26;;;;;;;29.20;10.53;;;;;;;21.56;47.75;101356.88;4970213;28;20114;-91
2022/09/02 08:59:54;;;;;;;28.73;10.97;;;;;;;21.70;47.07;101377.78;4968559;28;20297;-91
2022/09/02 09:02:31;;;;;;;27.67;9.57;;;;;;;21.84;47.38;101383.88;4948976;28;20495;-92
2022/09/02 09:05:05;;;;;;;24.15;9.57;;;;;;;22.02;47.03;101394.75;4950778;29;20027;-91
2022/09/02 09:07:52;;;;;;;22.63;8.75;;;;;;;22.19;47.21;101392.00;4941969;28;20696;-90
2022/09/02 09:10:34;;;;;;;18.85;8.93;;;;;;;22.26;47.02;101383.34;4944504;28;20029;-92
2022/09/02 09:13:22;;;;;;;25.35;9.38;;;;;;;22.40;46.62;101388.59;4952743;29;20038;-91
2022/09/02 09:16:03;;;;;;;23.23;9.05;;;;;;;22.46;46.77;101392.00;4947131;28;20038;-92
2022/09/02 09:18:39;;;;;;;18.88;8.90;;;;;;;22.66;46.29;101387.75;4951767;28;20039;-91
2022/09/02 09:21:06;;;;;;;25.50;9.65;;;;;;;22.87;45.92;101384.28;4951751;28;20031;-91
2022/09/02 09:23:36;;;;;;;24.97;10.33;;;;;;;23.08;45.79;101379.69;4952172;28;20740;-92
2022/09/02 09:26:09;;;;;;;28.43;11.60;;;;;;;23.17;44.65;101381.56;4951463;28;20314;-91
2022/09/02 09:28:55;;;;;;;32.78;12.40;;;;;;;23.43;45.19;101379.50;4934016;28;20122;-91
2022/09/02 09:31:29;;;;;;;30.00;13.13;;;;;;;23.58;44.01;101377.28;4921904;29;20039;-91
2022/09/02 09:34:03;;;;;;;30.10;13.23;;;;;;;23.71;44.49;101372.69;4937516;28;20027;-92
2022/09/02 09:36:38;;;;;;;34.03;14.02;;;;;;;23.88;43.64;101372.53;4951097;28;20043;-92
2022/09/02 09:39:20;;;;;;;40.22;14.52;;;;;;;24.03;43.38;101373.06;4948674;28;20070;-92
2022/09/02 09:41:50;;;;;;;36.53;14.95;;;;;;;24.20;42.66;101372.09;4940282;28;20039;-91
2022/09/02 09:44:36;;;;;;;30.52;13.20;;;;;;;24.61;43.64;101369.56;4930301;28;20256;-93
2022/09/02 09:47:13;;;;;;;29.52;12.65;;;;;;;24.83;41.15;101367.53;4938074;28;20031;-92
2022/09/02 09:49:39;;;;;;;30.30;12.77;;;;;;;24.97;41.24;101361.72;4951275;28;20549;-92
2022/09/02 09:52:05;;;;;;;30.43;13.13;;;;;;;25.02;40.44;101361.47;4951497;29;20823;-92
2022/09/02 09:54:30;;;;;;;27.23;11.30;;;;;;;25.08;40.40;101363.66;4950092;28;20033;-91
2022/09/02 09:57:13;;;;;;;29.88;11.73;;;;;;;25.27;41.00;101361.44;4950720;28;20046;-91
2022/09/02 09:59:44;;;;;;;24.23;11.20;;;;;;;25.36;39.53;101356.63;4951573;28;20027;-92
2022/09/02 10:02:25;;;;;;;24.30;11.68;;;;;;;25.39;40.86;101348.50;4952018;29;20027;-92
2022/09/02 10:04:52;;;;;;;20.95;8.43;;;;;;;25.58;39.32;101360.00;4938861;28;20031;-91
2022/09/02 10:07:39;;;;;;;14.32;6.72;;;;;;;25.65;39.04;101350.06;4948632;28;20031;-91
2022/09/02 10:10:15;;;;;;;13.07;5.55;;;;;;;25.58;39.03;101341.63;4951420;29;20063;-92
2022/09/02 10:12:41;;;;;;;8.45;4.40;;;;;;;25.53;37.75;101334.44;4952385;29;20062;-91
2022/09/02 10:15:08;;;;;;;9.70;3.88;;;;;;;25.54;37.89;101341.53;4945565;28;20060;-93
2022/09/02 10:18:02;;;;;;;6.68;2.75;;;;;;;25.57;37.64;101347.44;4946094;28;20028;-92
2022/09/02 10:21:06;;;;;;;3.67;2.50;;;;;;;25.61;38.02;101343.69;4949931;28;20038;-90
2022/09/02 10:23:48;;;;;;;5.53;2.70;;;;;;;25.80;38.66;101329.28;4951632;28;20337;-93
2022/09/02 10:26:26;;;;;;;8.18;2.50;;;;;;;25.99;36.23;101319.59;4935224;28;20047;-93
2022/09/02 10:29:26;;;;;;;3.78;2.00;;;;;;;25.91;37.01;101323.31;4951696;28;20125;-91
2022/09/02 10:31:57;;;;;;;3.15;2.10;;;;;;;25.94;35.49;101325.31;4949708;28;20208;-93
2022/09/02 10:34:40;;;;;;;5.57;2.45;;;;;;;25.89;35.51;101325.59;4951313;28;20109;-93
2022/09/02 10:37:17;;;;;;;5.70;2.40;;;;;;;25.61;36.29;101326.41;4950675;28;20043;-92
2022/09/02 10:47:36;;;;;;;4.33;1.80;;;;;;;25.41;35.49;101315.25;5139065;23;20103;-88
2022/09/02 10:50:14;;;;;;;5.03;2.33;;;;;;;25.60;35.44;101311.91;4980910;28;20300;-90
2022/09/02 10:53:00;;;;;;;4.55;2.47;;;;;;;25.74;34.55;101311.50;4974613;28;20089;-89
2022/09/02 10:55:51;;;;;;;3.60;2.40;;;;;;;25.68;34.69;101308.19;4976353;28;20026;-90
2022/09/02 10:58:42;;;;;;;10.52;2.40;;;;;;;25.79;34.80;101304.94;4982961;28;20038;-90
2022/09/02 11:01:16;;;;;;;6.32;2.30;;;;;;;25.82;34.59;101305.03;4966312;28;20118;-90
2022/09/02 11:04:01;;;;;;;6.70;2.50;;;;;;;25.84;34.67;101301.94;4975171;28;20027;-90
2022/09/02 11:06:31;;;;;;;5.63;3.22;;;;;;;25.86;34.37;101296.91;4974292;28;20133;-92
2022/09/02 11:09:12;;;;;;;6.68;2.70;;;;;;;25.92;34.82;101292.75;4976948;28;20039;-92
2022/09/02 11:11:44;;;;;;;5.13;2.28;;;;;;;25.94;33.79;101290.47;4940888;29;20039;-91
2022/09/02 11:14:26;;;;;;;5.37;2.10;;;;;;;26.06;34.22;101286.84;4937713;29;20031;-91
2022/09/02 11:17:01;;;;;;;5.43;2.27;;;;;;;26.04;33.46;101275.41;4959304;28;21010;-90
2022/09/02 11:19:48;;;;;;;6.40;2.28;;;;;;;26.17;33.70;101281.66;4955182;29;20027;-90
2022/09/02 11:22:38;;;;;;;4.72;2.20;;;;;;;26.06;33.11;101273.13;4955586;28;20065;-92
2022/09/02 11:25:46;;;;;;;5.40;2.20;;;;;;;26.22;33.70;101272.34;4970421;28;20042;-91
2022/09/02 11:28:29;;;;;;;3.60;1.80;;;;;;;26.44;33.45;101268.16;4912260;29;20223;-90
2022/09/02 11:31:02;;;;;;;6.18;2.03;;;;;;;26.64;32.17;101254.47;4956362;28;20041;-91
2022/09/02 11:33:37;;;;;;;3.83;2.38;;;;;;;26.85;32.09;101255.00;4971746;28;20054;-92
2022/09/02 11:36:03;;;;;;;2.88;2.17;;;;;;;26.80;31.54;101235.25;4955313;28;20110;-91
2022/09/02 11:38:50;;;;;;;4.03;3.17;;;;;;;26.93;31.53;101260.66;4955037;28;20110;-91
2022/09/02 11:41:27;;;;;;;4.63;2.40;;;;;;;27.08;31.37;101257.03;4954960;28;20385;-92
2022/09/02 11:43:54;;;;;;;4.90;2.40;;;;;;;27.24;30.87;101251.44;4944937;28;20035;-92
2022/09/02 11:46:53;;;;;;;6.20;2.38;;;;;;;27.58;30.19;101248.19;4965667;28;20486;-91
2022/09/02 11:49:40;;;;;;;5.45;2.30;;;;;;;27.86;30.23;101250.66;4954502;28;20043;-90